sensor_id;sensor_type;location;lat;lon;timestamp;P1;durP1;ratioP1;P2;durP2;ratioP2
27925;SDS011;15267;47.838;12.128;2022-12-07T00:01:30;10.45;;;7.95;;
27925;SDS011;15267;47.838;12.128;2022-12-07T00:03:57;10.55;;;8.02;;
27925;SDS011;15267;47.838;12.128;2022-12-07T00:06:29;11.20;;;8.50;;
27925;SDS011;15267;47.838;12.128;2022-12-07T00:08:55;12.23;;;8.63;;
27925;SDS011;15267;47.838;12.128;2022-12-07T00:11:22;10.90;;;8.95;;
27925;SDS011;15267;47.838;12.128;2022-12-07T00:13:57;10.77;;;8.82;;
27925;SDS011;15267;47.838;12.128;2022-12-07T00:16:24;11.27;;;9.02;;
27925;SDS011;15267;47.838;12.128;2022-12-07T00:18:50;12.23;;;8.70;;
27925;SDS011;15267;47.838;12.128;2022-12-07T00:21:18;12.07;;;9.63;;
27925;SDS011;15267;47.838;12.128;2022-12-07T00:23:44;10.85;;;8.68;;
27925;SDS011;15267;47.838;12.128;2022-12-07T00:26:11;10.48;;;8.40;;
27925;SDS011;15267;47.838;12.128;2022-12-07T00:28:37;11.40;;;8.75;;
27925;SDS011;15267;47.838;12.128;2022-12-07T00:31:04;11.20;;;8.77;;
27925;SDS011;15267;47.838;12.128;2022-12-07T00:33:31;10.75;;;8.60;;
27925;SDS011;15267;47.838;12.128;2022-12-07T00:35:58;10.48;;;8.43;;
27925;SDS011;15267;47.838;12.128;2022-12-07T00:38:24;10.75;;;8.40;;
27925;SDS011;15267;47.838;12.128;2022-12-07T00:40:57;12.07;;;9.55;;
27925;SDS011;15267;47.838;12.128;2022-12-07T00:43:23;12.57;;;10.50;;
27925;SDS011;15267;47.838;12.128;2022-12-07T00:45:49;15.77;;;10.73;;
27925;SDS011;15267;47.838;12.128;2022-12-07T00:48:15;15.70;;;10.77;;
27925;SDS011;15267;47.838;12.128;2022-12-07T00:50:41;13.80;;;10.48;;
27925;SDS011;15267;47.838;12.128;2022-12-07T00:53:07;14.68;;;11.80;;
27925;SDS011;15267;47.838;12.128;2022-12-07T00:55:33;15.93;;;12.20;;
27925;SDS011;15267;47.838;12.128;2022-12-07T00:57:59;15.15;;;12.35;;
27925;SDS011;15267;47.838;12.128;2022-12-07T01:00:25;16.88;;;12.45;;
27925;SDS011;15267;47.838;12.128;2022-12-07T01:02:51;18.85;;;12.48;;
27925;SDS011;15267;47.838;12.128;2022-12-07T01:05:17;17.08;;;13.25;;
27925;SDS011;15267;47.838;12.128;2022-12-07T01:07:43;15.88;;;12.23;;
27925;SDS011;15267;47.838;12.128;2022-12-07T01:10:11;16.40;;;13.18;;
27925;SDS011;15267;47.838;12.128;2022-12-07T01:12:37;18.30;;;12.25;;
27925;SDS011;15267;47.838;12.128;2022-12-07T01:15:03;16.98;;;12.63;;
27925;SDS011;15267;47.838;12.128;2022-12-07T01:17:29;17.52;;;12.55;;
27925;SDS011;15267;47.838;12.128;2022-12-07T01:19:55;17.13;;;13.27;;
27925;SDS011;15267;47.838;12.128;2022-12-07T01:22:21;16.95;;;13.00;;
27925;SDS011;15267;47.838;12.128;2022-12-07T01:24:47;16.17;;;12.40;;
27925;SDS011;15267;47.838;12.128;2022-12-07T01:27:13;13.95;;;11.50;;
27925;SDS011;15267;47.838;12.128;2022-12-07T01:29:39;15.15;;;12.02;;
27925;SDS011;15267;47.838;12.128;2022-12-07T01:32:05;17.77;;;12.15;;
27925;SDS011;15267;47.838;12.128;2022-12-07T01:34:31;15.68;;;12.25;;
27925;SDS011;15267;47.838;12.128;2022-12-07T01:36:57;15.57;;;12.43;;
27925;SDS011;15267;47.838;12.128;2022-12-07T01:39:23;15.95;;;12.77;;
27925;SDS011;15267;47.838;12.128;2022-12-07T01:41:49;17.90;;;13.38;;
27925;SDS011;15267;47.838;12.128;2022-12-07T01:46:48;17.48;;;12.52;;
27925;SDS011;15267;47.838;12.128;2022-12-07T01:49:22;14.18;;;11.88;;
27925;SDS011;15267;47.838;12.128;2022-12-07T01:51:49;15.80;;;12.63;;
27925;SDS011;15267;47.838;12.128;2022-12-07T01:54:17;16.08;;;12.52;;
27925;SDS011;15267;47.838;12.128;2022-12-07T01:56:47;14.55;;;12.25;;
27925;SDS011;15267;47.838;12.128;2022-12-07T01:59:14;15.65;;;12.10;;
27925;SDS011;15267;47.838;12.128;2022-12-07T02:01:40;14.32;;;11.88;;
27925;SDS011;15267;47.838;12.128;2022-12-07T02:04:06;15.77;;;12.38;;
27925;SDS011;15267;47.838;12.128;2022-12-07T02:06:32;14.10;;;11.75;;
27925;SDS011;15267;47.838;12.128;2022-12-07T02:08:59;16.65;;;12.77;;
27925;SDS011;15267;47.838;12.128;2022-12-07T02:11:25;12.95;;;11.48;;
27925;SDS011;15267;47.838;12.128;2022-12-07T02:13:51;15.80;;;12.52;;
27925;SDS011;15267;47.838;12.128;2022-12-07T02:29:40;16.25;;;12.35;;
27925;SDS011;15267;47.838;12.128;2022-12-07T02:32:15;17.33;;;13.05;;
27925;SDS011;15267;47.838;12.128;2022-12-07T02:37:34;14.38;;;11.48;;
27925;SDS011;15267;47.838;12.128;2022-12-07T02:40:05;18.95;;;13.63;;
27925;SDS011;15267;47.838;12.128;2022-12-07T02:42:40;14.68;;;12.20;;
27925;SDS011;15267;47.838;12.128;2022-12-07T02:45:08;15.98;;;13.50;;
27925;SDS011;15267;47.838;12.128;2022-12-07T02:47:36;15.43;;;12.07;;
27925;SDS011;15267;47.838;12.128;2022-12-07T02:50:03;16.13;;;13.23;;
27925;SDS011;15267;47.838;12.128;2022-12-07T02:52:30;16.45;;;13.10;;
27925;SDS011;15267;47.838;12.128;2022-12-07T02:54:55;14.73;;;12.25;;
27925;SDS011;15267;47.838;12.128;2022-12-07T02:57:26;15.75;;;12.30;;
27925;SDS011;15267;47.838;12.128;2022-12-07T03:00:05;18.08;;;13.18;;
27925;SDS011;15267;47.838;12.128;2022-12-07T03:05:32;15.60;;;13.00;;
27925;SDS011;15267;47.838;12.128;2022-12-07T03:15:39;17.75;;;13.45;;
27925;SDS011;15267;47.838;12.128;2022-12-07T03:18:06;15.40;;;13.27;;
27925;SDS011;15267;47.838;12.128;2022-12-07T03:20:33;16.77;;;12.90;;
27925;SDS011;15267;47.838;12.128;2022-12-07T03:23:00;18.52;;;13.50;;
27925;SDS011;15267;47.838;12.128;2022-12-07T03:25:26;15.65;;;13.32;;
27925;SDS011;15267;47.838;12.128;2022-12-07T03:27:53;16.23;;;13.30;;
27925;SDS011;15267;47.838;12.128;2022-12-07T03:30:32;15.88;;;12.45;;
27925;SDS011;15267;47.838;12.128;2022-12-07T03:35:31;17.25;;;12.70;;
27925;SDS011;15267;47.838;12.128;2022-12-07T03:38:00;17.65;;;13.77;;
27925;SDS011;15267;47.838;12.128;2022-12-07T03:40:29;20.27;;;14.38;;
27925;SDS011;15267;47.838;12.128;2022-12-07T03:42:56;19.02;;;14.48;;
27925;SDS011;15267;47.838;12.128;2022-12-07T03:45:26;19.75;;;14.43;;
27925;SDS011;15267;47.838;12.128;2022-12-07T03:48:02;18.67;;;14.50;;
27925;SDS011;15267;47.838;12.128;2022-12-07T03:50:41;17.95;;;14.75;;
27925;SDS011;15267;47.838;12.128;2022-12-07T03:53:18;19.75;;;14.65;;
27925;SDS011;15267;47.838;12.128;2022-12-07T03:55:45;20.05;;;13.80;;
27925;SDS011;15267;47.838;12.128;2022-12-07T03:58:12;20.67;;;14.20;;
27925;SDS011;15267;47.838;12.128;2022-12-07T04:00:40;20.70;;;15.63;;
27925;SDS011;15267;47.838;12.128;2022-12-07T04:03:06;19.75;;;15.25;;
27925;SDS011;15267;47.838;12.128;2022-12-07T04:05:32;18.15;;;14.13;;
27925;SDS011;15267;47.838;12.128;2022-12-07T04:07:59;21.13;;;15.40;;
27925;SDS011;15267;47.838;12.128;2022-12-07T04:10:24;20.38;;;14.75;;
27925;SDS011;15267;47.838;12.128;2022-12-07T04:12:50;19.40;;;15.57;;
27925;SDS011;15267;47.838;12.128;2022-12-07T04:15:16;19.00;;;14.35;;
27925;SDS011;15267;47.838;12.128;2022-12-07T04:17:42;20.23;;;14.25;;
27925;SDS011;15267;47.838;12.128;2022-12-07T04:20:09;19.23;;;15.25;;
27925;SDS011;15267;47.838;12.128;2022-12-07T04:22:35;20.65;;;15.35;;
27925;SDS011;15267;47.838;12.128;2022-12-07T04:25:01;18.85;;;15.10;;
27925;SDS011;15267;47.838;12.128;2022-12-07T04:27:27;19.52;;;14.93;;
27925;SDS011;15267;47.838;12.128;2022-12-07T04:29:53;20.63;;;15.07;;
27925;SDS011;15267;47.838;12.128;2022-12-07T04:32:20;18.55;;;14.70;;
27925;SDS011;15267;47.838;12.128;2022-12-07T04:34:46;20.42;;;14.50;;
27925;SDS011;15267;47.838;12.128;2022-12-07T04:37:12;18.27;;;13.60;;
27925;SDS011;15267;47.838;12.128;2022-12-07T04:39:38;17.77;;;13.63;;
27925;SDS011;15267;47.838;12.128;2022-12-07T04:42:04;18.42;;;13.95;;
27925;SDS011;15267;47.838;12.128;2022-12-07T04:44:30;18.45;;;14.00;;
27925;SDS011;15267;47.838;12.128;2022-12-07T04:46:56;20.23;;;15.52;;
27925;SDS011;15267;47.838;12.128;2022-12-07T04:49:23;19.98;;;15.05;;
27925;SDS011;15267;47.838;12.128;2022-12-07T04:51:49;22.13;;;15.90;;
27925;SDS011;15267;47.838;12.128;2022-12-07T04:54:15;18.95;;;15.10;;
27925;SDS011;15267;47.838;12.128;2022-12-07T04:56:42;20.40;;;15.50;;
27925;SDS011;15267;47.838;12.128;2022-12-07T04:59:09;19.85;;;14.90;;
27925;SDS011;15267;47.838;12.128;2022-12-07T05:01:35;18.35;;;14.45;;
27925;SDS011;15267;47.838;12.128;2022-12-07T05:04:02;21.17;;;15.65;;
27925;SDS011;15267;47.838;12.128;2022-12-07T05:06:28;18.42;;;14.95;;
27925;SDS011;15267;47.838;12.128;2022-12-07T05:08:54;19.83;;;15.20;;
27925;SDS011;15267;47.838;12.128;2022-12-07T05:11:20;19.92;;;15.07;;
27925;SDS011;15267;47.838;12.128;2022-12-07T05:14:37;20.38;;;15.48;;
27925;SDS011;15267;47.838;12.128;2022-12-07T05:16:56;20.35;;;14.68;;
27925;SDS011;15267;47.838;12.128;2022-12-07T05:19:22;19.20;;;15.27;;
27925;SDS011;15267;47.838;12.128;2022-12-07T05:21:48;18.27;;;14.68;;
27925;SDS011;15267;47.838;12.128;2022-12-07T05:24:15;20.73;;;14.55;;
27925;SDS011;15267;47.838;12.128;2022-12-07T05:26:42;19.60;;;14.65;;
27925;SDS011;15267;47.838;12.128;2022-12-07T05:29:10;21.00;;;14.77;;
27925;SDS011;15267;47.838;12.128;2022-12-07T05:31:36;20.50;;;15.02;;
27925;SDS011;15267;47.838;12.128;2022-12-07T05:34:02;19.92;;;15.02;;
27925;SDS011;15267;47.838;12.128;2022-12-07T05:36:28;18.33;;;14.70;;
27925;SDS011;15267;47.838;12.128;2022-12-07T05:38:56;20.02;;;14.88;;
27925;SDS011;15267;47.838;12.128;2022-12-07T05:41:22;18.98;;;15.05;;
27925;SDS011;15267;47.838;12.128;2022-12-07T05:44:07;19.98;;;15.90;;
27925;SDS011;15267;47.838;12.128;2022-12-07T05:46:33;19.13;;;14.88;;
27925;SDS011;15267;47.838;12.128;2022-12-07T05:48:59;19.98;;;16.02;;
27925;SDS011;15267;47.838;12.128;2022-12-07T05:51:25;21.73;;;15.93;;
27925;SDS011;15267;47.838;12.128;2022-12-07T05:53:51;20.10;;;16.05;;
27925;SDS011;15267;47.838;12.128;2022-12-07T05:56:17;19.92;;;16.02;;
27925;SDS011;15267;47.838;12.128;2022-12-07T05:58:43;20.65;;;16.00;;
27925;SDS011;15267;47.838;12.128;2022-12-07T06:01:28;22.20;;;16.08;;
27925;SDS011;15267;47.838;12.128;2022-12-07T06:03:54;20.38;;;15.90;;
27925;SDS011;15267;47.838;12.128;2022-12-07T06:06:19;21.17;;;16.02;;
27925;SDS011;15267;47.838;12.128;2022-12-07T06:08:45;22.45;;;16.02;;
27925;SDS011;15267;47.838;12.128;2022-12-07T06:11:11;21.83;;;16.70;;
27925;SDS011;15267;47.838;12.128;2022-12-07T06:13:56;22.30;;;16.40;;
27925;SDS011;15267;47.838;12.128;2022-12-07T06:16:22;22.17;;;16.10;;
27925;SDS011;15267;47.838;12.128;2022-12-07T06:18:48;23.00;;;16.00;;
27925;SDS011;15267;47.838;12.128;2022-12-07T06:21:14;21.90;;;15.82;;
27925;SDS011;15267;47.838;12.128;2022-12-07T06:23:40;22.98;;;16.83;;
27925;SDS011;15267;47.838;12.128;2022-12-07T06:26:06;21.88;;;16.17;;
27925;SDS011;15267;47.838;12.128;2022-12-07T06:28:32;20.88;;;15.73;;
27925;SDS011;15267;47.838;12.128;2022-12-07T06:30:59;21.83;;;15.63;;
27925;SDS011;15267;47.838;12.128;2022-12-07T06:33:25;20.45;;;15.93;;
27925;SDS011;15267;47.838;12.128;2022-12-07T06:35:51;25.83;;;17.90;;
27925;SDS011;15267;47.838;12.128;2022-12-07T06:38:17;21.90;;;15.80;;
27925;SDS011;15267;47.838;12.128;2022-12-07T06:40:43;23.20;;;17.10;;
27925;SDS011;15267;47.838;12.128;2022-12-07T06:43:09;25.73;;;18.10;;
27925;SDS011;15267;47.838;12.128;2022-12-07T06:45:35;23.50;;;17.88;;
27925;SDS011;15267;47.838;12.128;2022-12-07T06:48:01;21.65;;;17.00;;
27925;SDS011;15267;47.838;12.128;2022-12-07T06:50:27;23.65;;;16.92;;
27925;SDS011;15267;47.838;12.128;2022-12-07T06:52:53;24.63;;;17.65;;
27925;SDS011;15267;47.838;12.128;2022-12-07T06:55:19;24.27;;;17.70;;
27925;SDS011;15267;47.838;12.128;2022-12-07T06:57:45;24.15;;;18.05;;
27925;SDS011;15267;47.838;12.128;2022-12-07T07:00:11;24.17;;;18.15;;
27925;SDS011;15267;47.838;12.128;2022-12-07T07:02:37;25.75;;;18.27;;
27925;SDS011;15267;47.838;12.128;2022-12-07T07:05:03;25.52;;;17.95;;
27925;SDS011;15267;47.838;12.128;2022-12-07T07:07:29;27.30;;;20.05;;
27925;SDS011;15267;47.838;12.128;2022-12-07T07:09:55;27.40;;;18.83;;
27925;SDS011;15267;47.838;12.128;2022-12-07T07:12:21;25.30;;;18.00;;
27925;SDS011;15267;47.838;12.128;2022-12-07T07:14:47;23.48;;;17.23;;
27925;SDS011;15267;47.838;12.128;2022-12-07T07:17:13;23.17;;;16.40;;
27925;SDS011;15267;47.838;12.128;2022-12-07T07:19:39;24.35;;;17.55;;
27925;SDS011;15267;47.838;12.128;2022-12-07T07:22:05;20.13;;;15.70;;
27925;SDS011;15267;47.838;12.128;2022-12-07T07:24:31;22.17;;;15.80;;
27925;SDS011;15267;47.838;12.128;2022-12-07T07:26:57;20.52;;;16.38;;
27925;SDS011;15267;47.838;12.128;2022-12-07T07:29:23;19.70;;;15.30;;
27925;SDS011;15267;47.838;12.128;2022-12-07T07:31:49;20.85;;;15.40;;
27925;SDS011;15267;47.838;12.128;2022-12-07T07:34:15;22.42;;;15.70;;
27925;SDS011;15267;47.838;12.128;2022-12-07T07:36:41;23.08;;;16.00;;
27925;SDS011;15267;47.838;12.128;2022-12-07T07:39:07;21.08;;;15.70;;
27925;SDS011;15267;47.838;12.128;2022-12-07T07:41:32;19.25;;;15.10;;
27925;SDS011;15267;47.838;12.128;2022-12-07T07:43:58;19.90;;;15.25;;
27925;SDS011;15267;47.838;12.128;2022-12-07T07:46:24;23.13;;;16.50;;
27925;SDS011;15267;47.838;12.128;2022-12-07T07:48:50;21.65;;;15.35;;
27925;SDS011;15267;47.838;12.128;2022-12-07T07:51:16;22.83;;;15.10;;
27925;SDS011;15267;47.838;12.128;2022-12-07T07:53:42;22.88;;;16.40;;
27925;SDS011;15267;47.838;12.128;2022-12-07T07:56:08;23.58;;;16.00;;
27925;SDS011;15267;47.838;12.128;2022-12-07T07:58:34;20.45;;;15.60;;
27925;SDS011;15267;47.838;12.128;2022-12-07T08:01:04;21.10;;;14.98;;
27925;SDS011;15267;47.838;12.128;2022-12-07T08:03:30;23.50;;;16.90;;
27925;SDS011;15267;47.838;12.128;2022-12-07T08:05:56;27.65;;;19.15;;
27925;SDS011;15267;47.838;12.128;2022-12-07T08:08:22;26.23;;;17.77;;
27925;SDS011;15267;47.838;12.128;2022-12-07T08:10:48;23.05;;;17.42;;
27925;SDS011;15267;47.838;12.128;2022-12-07T08:13:15;24.92;;;17.90;;
27925;SDS011;15267;47.838;12.128;2022-12-07T08:15:45;23.70;;;16.35;;
27925;SDS011;15267;47.838;12.128;2022-12-07T08:18:11;21.20;;;15.77;;
27925;SDS011;15267;47.838;12.128;2022-12-07T08:20:38;22.77;;;16.08;;
27925;SDS011;15267;47.838;12.128;2022-12-07T08:23:04;22.55;;;16.63;;
27925;SDS011;15267;47.838;12.128;2022-12-07T08:25:31;27.42;;;15.63;;
27925;SDS011;15267;47.838;12.128;2022-12-07T08:27:57;27.95;;;15.68;;
27925;SDS011;15267;47.838;12.128;2022-12-07T08:30:23;19.90;;;14.18;;
27925;SDS011;15267;47.838;12.128;2022-12-07T08:32:49;25.20;;;16.02;;
27925;SDS011;15267;47.838;12.128;2022-12-07T08:35:15;23.08;;;16.02;;
27925;SDS011;15267;47.838;12.128;2022-12-07T08:37:41;21.35;;;14.32;;
27925;SDS011;15267;47.838;12.128;2022-12-07T08:40:08;21.17;;;14.50;;
27925;SDS011;15267;47.838;12.128;2022-12-07T08:42:34;22.10;;;15.48;;
27925;SDS011;15267;47.838;12.128;2022-12-07T08:45:06;21.77;;;14.68;;
27925;SDS011;15267;47.838;12.128;2022-12-07T08:47:32;25.48;;;18.52;;
27925;SDS011;15267;47.838;12.128;2022-12-07T08:49:59;20.02;;;15.02;;
27925;SDS011;15267;47.838;12.128;2022-12-07T08:52:28;24.13;;;15.35;;
27925;SDS011;15267;47.838;12.128;2022-12-07T08:54:55;19.00;;;14.63;;
27925;SDS011;15267;47.838;12.128;2022-12-07T08:57:21;17.88;;;14.02;;
27925;SDS011;15267;47.838;12.128;2022-12-07T08:59:47;20.10;;;14.98;;
27925;SDS011;15267;47.838;12.128;2022-12-07T09:02:13;20.27;;;16.00;;
27925;SDS011;15267;47.838;12.128;2022-12-07T09:04:39;20.40;;;15.88;;
27925;SDS011;15267;47.838;12.128;2022-12-07T09:07:05;21.13;;;15.25;;
27925;SDS011;15267;47.838;12.128;2022-12-07T09:09:31;18.67;;;14.18;;
27925;SDS011;15267;47.838;12.128;2022-12-07T09:11:58;19.42;;;15.55;;
27925;SDS011;15267;47.838;12.128;2022-12-07T09:14:23;18.95;;;14.70;;
27925;SDS011;15267;47.838;12.128;2022-12-07T09:16:49;21.15;;;16.33;;
27925;SDS011;15267;47.838;12.128;2022-12-07T09:19:16;20.45;;;16.60;;
27925;SDS011;15267;47.838;12.128;2022-12-07T09:21:42;21.30;;;17.23;;
27925;SDS011;15267;47.838;12.128;2022-12-07T09:24:08;21.38;;;16.73;;
27925;SDS011;15267;47.838;12.128;2022-12-07T09:26:34;20.17;;;16.02;;
27925;SDS011;15267;47.838;12.128;2022-12-07T09:29:02;20.45;;;17.02;;
27925;SDS011;15267;47.838;12.128;2022-12-07T09:31:28;21.42;;;16.40;;
27925;SDS011;15267;47.838;12.128;2022-12-07T09:33:58;21.70;;;16.45;;
27925;SDS011;15267;47.838;12.128;2022-12-07T09:36:24;20.50;;;16.10;;
27925;SDS011;15267;47.838;12.128;2022-12-07T09:38:50;19.67;;;15.98;;
27925;SDS011;15267;47.838;12.128;2022-12-07T09:41:16;20.45;;;16.25;;
27925;SDS011;15267;47.838;12.128;2022-12-07T09:43:42;17.02;;;14.93;;
27925;SDS011;15267;47.838;12.128;2022-12-07T09:46:10;42.85;;;30.27;;
27925;SDS011;15267;47.838;12.128;2022-12-07T09:48:40;29.42;;;20.38;;
27925;SDS011;15267;47.838;12.128;2022-12-07T09:51:14;26.73;;;19.15;;
27925;SDS011;15267;47.838;12.128;2022-12-07T09:53:42;18.55;;;15.38;;
27925;SDS011;15267;47.838;12.128;2022-12-07T09:56:09;19.08;;;15.15;;
27925;SDS011;15267;47.838;12.128;2022-12-07T09:58:37;18.45;;;15.23;;
27925;SDS011;15267;47.838;12.128;2022-12-07T10:03:37;17.42;;;14.27;;
27925;SDS011;15267;47.838;12.128;2022-12-07T10:06:03;18.02;;;13.32;;
27925;SDS011;15267;47.838;12.128;2022-12-07T10:08:30;15.77;;;12.15;;
27925;SDS011;15267;47.838;12.128;2022-12-07T10:10:56;17.83;;;13.63;;
27925;SDS011;15267;47.838;12.128;2022-12-07T10:14:10;16.63;;;12.45;;
27925;SDS011;15267;47.838;12.128;2022-12-07T10:16:35;14.85;;;11.95;;
27925;SDS011;15267;47.838;12.128;2022-12-07T10:24:36;15.20;;;13.02;;
27925;SDS011;15267;47.838;12.128;2022-12-07T10:27:04;15.80;;;13.13;;
27925;SDS011;15267;47.838;12.128;2022-12-07T10:29:31;12.63;;;10.07;;
27925;SDS011;15267;47.838;12.128;2022-12-07T10:32:02;15.00;;;12.23;;
27925;SDS011;15267;47.838;12.128;2022-12-07T10:34:29;15.20;;;11.40;;
27925;SDS011;15267;47.838;12.128;2022-12-07T10:39:45;13.95;;;10.25;;
27925;SDS011;15267;47.838;12.128;2022-12-07T10:45:12;12.40;;;10.07;;
27925;SDS011;15267;47.838;12.128;2022-12-07T10:47:47;12.07;;;10.13;;
27925;SDS011;15267;47.838;12.128;2022-12-07T11:00:41;14.88;;;10.88;;
27925;SDS011;15267;47.838;12.128;2022-12-07T11:03:20;12.43;;;10.27;;
27925;SDS011;15267;47.838;12.128;2022-12-07T11:05:52;10.88;;;9.35;;
27925;SDS011;15267;47.838;12.128;2022-12-07T11:11:14;10.05;;;8.98;;
27925;SDS011;15267;47.838;12.128;2022-12-07T11:19:01;11.02;;;9.32;;
27925;SDS011;15267;47.838;12.128;2022-12-07T11:22:06;12.23;;;9.25;;
27925;SDS011;15267;47.838;12.128;2022-12-07T11:31:54;13.38;;;9.57;;
27925;SDS011;15267;47.838;12.128;2022-12-07T11:37:11;14.93;;;11.07;;
27925;SDS011;15267;47.838;12.128;2022-12-07T11:39:41;14.52;;;10.40;;
27925;SDS011;15267;47.838;12.128;2022-12-07T11:42:10;14.98;;;10.40;;
27925;SDS011;15267;47.838;12.128;2022-12-07T11:44:50;13.55;;;10.10;;
27925;SDS011;15267;47.838;12.128;2022-12-07T11:49:49;11.38;;;9.20;;
27925;SDS011;15267;47.838;12.128;2022-12-07T11:54:47;9.80;;;8.77;;
27925;SDS011;15267;47.838;12.128;2022-12-07T11:57:37;12.82;;;9.60;;
27925;SDS011;15267;47.838;12.128;2022-12-07T12:00:06;10.05;;;8.88;;
27925;SDS011;15267;47.838;12.128;2022-12-07T12:02:59;10.40;;;8.15;;
27925;SDS011;15267;47.838;12.128;2022-12-07T12:05:24;10.23;;;8.63;;
27925;SDS011;15267;47.838;12.128;2022-12-07T12:08:09;12.57;;;10.70;;
27925;SDS011;15267;47.838;12.128;2022-12-07T12:13:27;32.05;;;17.65;;
27925;SDS011;15267;47.838;12.128;2022-12-07T12:21:10;12.00;;;9.60;;
27925;SDS011;15267;47.838;12.128;2022-12-07T12:23:42;11.43;;;8.77;;
27925;SDS011;15267;47.838;12.128;2022-12-07T12:26:14;11.43;;;9.77;;
27925;SDS011;15267;47.838;12.128;2022-12-07T12:28:48;10.15;;;8.73;;
27925;SDS011;15267;47.838;12.128;2022-12-07T12:31:16;11.65;;;9.95;;
27925;SDS011;15267;47.838;12.128;2022-12-07T12:33:52;10.77;;;9.50;;
27925;SDS011;15267;47.838;12.128;2022-12-07T12:36:20;10.88;;;8.82;;
27925;SDS011;15267;47.838;12.128;2022-12-07T12:38:48;11.57;;;8.55;;
27925;SDS011;15267;47.838;12.128;2022-12-07T12:43:59;12.85;;;9.52;;
27925;SDS011;15267;47.838;12.128;2022-12-07T12:51:37;12.50;;;9.52;;
27925;SDS011;15267;47.838;12.128;2022-12-07T12:54:04;12.02;;;9.50;;
27925;SDS011;15267;47.838;12.128;2022-12-07T12:59:33;13.05;;;9.63;;
27925;SDS011;15267;47.838;12.128;2022-12-07T13:10:20;10.13;;;8.65;;
27925;SDS011;15267;47.838;12.128;2022-12-07T13:15:34;13.07;;;10.23;;
27925;SDS011;15267;47.838;12.128;2022-12-07T13:18:01;12.23;;;9.55;;
27925;SDS011;15267;47.838;12.128;2022-12-07T13:20:42;13.00;;;9.88;;
27925;SDS011;15267;47.838;12.128;2022-12-07T13:23:09;12.20;;;9.30;;
27925;SDS011;15267;47.838;12.128;2022-12-07T13:25:41;11.98;;;9.40;;
27925;SDS011;15267;47.838;12.128;2022-12-07T13:28:17;7.90;;;6.80;;
27925;SDS011;15267;47.838;12.128;2022-12-07T13:33:29;10.50;;;7.50;;
27925;SDS011;15267;47.838;12.128;2022-12-07T13:35:55;9.95;;;8.38;;
27925;SDS011;15267;47.838;12.128;2022-12-07T13:38:35;13.15;;;8.57;;
27925;SDS011;15267;47.838;12.128;2022-12-07T13:41:13;10.15;;;8.57;;
27925;SDS011;15267;47.838;12.128;2022-12-07T13:43:43;11.18;;;8.73;;
27925;SDS011;15267;47.838;12.128;2022-12-07T13:46:09;11.90;;;8.85;;
27925;SDS011;15267;47.838;12.128;2022-12-07T13:48:49;11.93;;;8.55;;
27925;SDS011;15267;47.838;12.128;2022-12-07T13:51:26;12.48;;;8.82;;
27925;SDS011;15267;47.838;12.128;2022-12-07T13:53:53;12.07;;;8.45;;
27925;SDS011;15267;47.838;12.128;2022-12-07T13:56:21;9.80;;;8.07;;
27925;SDS011;15267;47.838;12.128;2022-12-07T13:58:47;14.55;;;9.40;;
27925;SDS011;15267;47.838;12.128;2022-12-07T14:01:13;11.20;;;8.68;;
27925;SDS011;15267;47.838;12.128;2022-12-07T14:03:39;11.32;;;8.20;;
27925;SDS011;15267;47.838;12.128;2022-12-07T14:06:25;10.45;;;8.13;;
27925;SDS011;15267;47.838;12.128;2022-12-07T14:11:37;10.13;;;7.65;;
27925;SDS011;15267;47.838;12.128;2022-12-07T14:14:04;8.45;;;6.85;;
27925;SDS011;15267;47.838;12.128;2022-12-07T14:16:32;10.57;;;7.60;;
27925;SDS011;15267;47.838;12.128;2022-12-07T14:19:00;9.82;;;7.30;;
27925;SDS011;15267;47.838;12.128;2022-12-07T14:21:30;11.27;;;7.82;;
27925;SDS011;15267;47.838;12.128;2022-12-07T14:26:42;10.40;;;7.65;;
27925;SDS011;15267;47.838;12.128;2022-12-07T14:29:19;10.13;;;7.88;;
27925;SDS011;15267;47.838;12.128;2022-12-07T14:31:45;10.40;;;8.02;;
27925;SDS011;15267;47.838;12.128;2022-12-07T14:34:12;14.63;;;9.07;;
27925;SDS011;15267;47.838;12.128;2022-12-07T14:36:38;14.68;;;8.35;;
27925;SDS011;15267;47.838;12.128;2022-12-07T14:39:04;14.45;;;8.80;;
27925;SDS011;15267;47.838;12.128;2022-12-07T14:41:30;20.17;;;15.68;;
27925;SDS011;15267;47.838;12.128;2022-12-07T14:44:14;27.52;;;20.08;;
27925;SDS011;15267;47.838;12.128;2022-12-07T14:46:40;19.10;;;13.45;;
27925;SDS011;15267;47.838;12.128;2022-12-07T14:49:06;15.55;;;11.93;;
27925;SDS011;15267;47.838;12.128;2022-12-07T14:51:32;15.85;;;12.88;;
27925;SDS011;15267;47.838;12.128;2022-12-07T14:53:59;14.30;;;10.68;;
27925;SDS011;15267;47.838;12.128;2022-12-07T14:56:25;13.38;;;10.90;;
27925;SDS011;15267;47.838;12.128;2022-12-07T14:58:52;13.68;;;10.75;;
27925;SDS011;15267;47.838;12.128;2022-12-07T15:01:18;14.70;;;12.73;;
27925;SDS011;15267;47.838;12.128;2022-12-07T15:03:44;15.20;;;12.80;;
27925;SDS011;15267;47.838;12.128;2022-12-07T15:06:12;18.55;;;13.85;;
27925;SDS011;15267;47.838;12.128;2022-12-07T15:08:39;19.42;;;13.90;;
27925;SDS011;15267;47.838;12.128;2022-12-07T15:11:05;18.35;;;13.75;;
27925;SDS011;15267;47.838;12.128;2022-12-07T15:13:31;16.63;;;12.90;;
27925;SDS011;15267;47.838;12.128;2022-12-07T15:16:16;19.23;;;12.52;;
27925;SDS011;15267;47.838;12.128;2022-12-07T15:18:43;17.98;;;13.32;;
27925;SDS011;15267;47.838;12.128;2022-12-07T15:21:13;18.40;;;13.68;;
27925;SDS011;15267;47.838;12.128;2022-12-07T15:23:39;25.73;;;17.05;;
27925;SDS011;15267;47.838;12.128;2022-12-07T15:26:05;39.67;;;25.55;;
27925;SDS011;15267;47.838;12.128;2022-12-07T15:28:32;37.20;;;24.80;;
27925;SDS011;15267;47.838;12.128;2022-12-07T15:30:58;31.75;;;20.73;;
27925;SDS011;15267;47.838;12.128;2022-12-07T15:33:24;30.27;;;21.75;;
27925;SDS011;15267;47.838;12.128;2022-12-07T15:35:50;33.13;;;22.88;;
27925;SDS011;15267;47.838;12.128;2022-12-07T15:38:16;27.55;;;19.40;;
27925;SDS011;15267;47.838;12.128;2022-12-07T15:40:42;25.20;;;17.25;;
27925;SDS011;15267;47.838;12.128;2022-12-07T15:43:09;25.30;;;18.98;;
27925;SDS011;15267;47.838;12.128;2022-12-07T15:45:55;18.58;;;13.93;;
27925;SDS011;15267;47.838;12.128;2022-12-07T15:48:21;23.35;;;15.05;;
27925;SDS011;15267;47.838;12.128;2022-12-07T15:50:47;22.80;;;17.00;;
27925;SDS011;15267;47.838;12.128;2022-12-07T15:53:13;23.17;;;15.88;;
27925;SDS011;15267;47.838;12.128;2022-12-07T15:55:39;20.58;;;14.32;;
27925;SDS011;15267;47.838;12.128;2022-12-07T15:58:05;20.52;;;14.48;;
27925;SDS011;15267;47.838;12.128;2022-12-07T16:00:31;20.08;;;16.13;;
27925;SDS011;15267;47.838;12.128;2022-12-07T16:02:57;20.95;;;15.35;;
27925;SDS011;15267;47.838;12.128;2022-12-07T16:05:23;21.65;;;16.45;;
27925;SDS011;15267;47.838;12.128;2022-12-07T16:07:49;21.67;;;17.25;;
27925;SDS011;15267;47.838;12.128;2022-12-07T16:10:15;21.33;;;15.75;;
27925;SDS011;15267;47.838;12.128;2022-12-07T16:12:41;20.92;;;14.93;;
27925;SDS011;15267;47.838;12.128;2022-12-07T16:15:07;23.10;;;19.35;;